This is the latest recevied weather packets stored in our database for station/object KC1DMA. If no packets are shown the sender has not sent any weather packets the latest 10 day(s).
| Time | Temp. | Humidity | Pressure | Rain* | Wind** | Luminosity | Snow |
|---|---|---|---|---|---|---|---|
| 1777898525 | 12.78° C | 50% | 1014.8 hPa | - | - | 382 W/m² | - |
| 1777898222 | 12.78° C | 52% | 1015 hPa | - | - | 365 W/m² | - |
| 1777897919 | 12.78° C | 49% | 1015 hPa | - | - | 347 W/m² | - |
| 1777897615 | 12.78° C | 49% | 1014.8 hPa | - | - | 334 W/m² | - |
| 1777897310 | 12.22° C | 50% | 1014.6 hPa | - | - | 312 W/m² | - |
| 1777897007 | 12.22° C | 49% | 1014.9 hPa | - | - | 295 W/m² | - |
| 1777896704 | 11.67° C | 50% | 1014.8 hPa | - | - | 283 W/m² | - |
| 1777896401 | 12.22° C | 52% | 1014.8 hPa | - | - | 259 W/m² | - |
| 1777896099 | 11.67° C | 51% | 1015 hPa | - | - | 246 W/m² | - |
| 1777895797 | 11.67° C | 51% | 1015 hPa | - | - | 211 W/m² | - |
| 1777895493 | 11.67° C | 51% | 1014.9 hPa | - | - | 211 W/m² | - |
| 1777895191 | 8.89° C | 57% | 1014.6 hPa | - | - | 62 W/m² | - |
| 1777894888 | 8.89° C | 57% | 1014.7 hPa | - | - | 62 W/m² | - |
| 1777894586 | 8.89° C | 57% | 1014.7 hPa | - | - | 62 W/m² | - |
| 1777894283 | 8.89° C | 57% | 1014.7 hPa | - | - | 62 W/m² | - |
| 1777893980 | 8.89° C | 57% | 1014.8 hPa | - | - | 62 W/m² | - |
| 1777893676 | 8.89° C | 57% | 1014.8 hPa | - | - | 62 W/m² | - |
| 1777893372 | 8.89° C | 57% | 1014.7 hPa | - | - | 62 W/m² | - |
| 1777893068 | 8.89° C | 57% | 1014.7 hPa | - | - | 62 W/m² | - |
| 1777892766 | 8.89° C | 57% | 1014.8 hPa | - | - | 59 W/m² | - |
| 1777892462 | 8.33° C | 57% | 1014.9 hPa | - | - | 62 W/m² | - |
| 1777892158 | 7.78° C | 58% | 1014.9 hPa | - | - | 19 W/m² | - |
| 1777891854 | 7.78° C | 58% | 1014.8 hPa | - | - | 19 W/m² | - |
| 1777891552 | 7.78° C | 58% | 1014.7 hPa | - | - | 19 W/m² | - |
| 1777891248 | 7.78° C | 58% | 1014.7 hPa | - | - | 19 W/m² | - |
* Rain since midnight (hover to see other rain measurements)
** Current wind speed in m/s (hover to see current wind gust speed)